Time;durP1;ratioP1;P1;durP2;ratioP2;P2;SDS_P1;SDS_P2;PMS_P1;PMS_P2;Temp;Humidity;BMP_temperature;BMP_pressure;BME280_temperature;BME280_humidity;BME280_pressure;Samples;Min_cycle;Max_cycle;Signal;HPM_P1;HPM_P2
2022/05/30 00:02:00;;;;;;;;;;;20.90;41.90;;;;;;484781;246;1208;-78
2022/05/30 00:04:01;;;;;;;;;;;20.80;41.80;;;;;;484883;246;1358;-78
2022/05/30 00:06:02;;;;;;;;;;;20.80;41.80;;;;;;484790;246;1071;-78
2022/05/30 00:08:03;;;;;;;;;;;20.80;41.70;;;;;;484712;246;1136;-78
2022/05/30 00:10:05;;;;;;;;;;;20.80;41.70;;;;;;484834;246;1172;-78
2022/05/30 00:12:06;;;;;;;;;;;20.80;41.70;;;;;;484713;246;1255;-78
2022/05/30 00:14:07;;;;;;;;;;;20.80;41.70;;;;;;484817;246;1144;-78
2022/05/30 00:16:09;;;;;;;;;;;20.70;41.70;;;;;;484809;246;1144;-78
2022/05/30 00:18:12;;;;;;;;;;;20.70;41.80;;;;;;484793;246;2125;-78
2022/05/30 00:20:11;;;;;;;;;;;20.80;41.70;;;;;;484703;246;1536;-78
2022/05/30 00:22:14;;;;;;;;;;;20.80;41.70;;;;;;484756;246;1027;-78
2022/05/30 00:24:14;;;;;;;;;;;20.80;41.60;;;;;;484744;246;1470;-78
2022/05/30 00:26:15;;;;;;;;;;;20.80;41.60;;;;;;484798;246;976;-78
2022/05/30 00:28:17;;;;;;;;;;;20.70;41.70;;;;;;484777;246;1056;-78
2022/05/30 00:30:19;;;;;;;;;;;20.80;41.60;;;;;;484991;246;1098;-78
2022/05/30 00:32:20;;;;;;;;;;;20.80;41.50;;;;;;484714;246;1342;-78
2022/05/30 00:34:21;;;;;;;;;;;20.80;41.40;;;;;;485026;246;1398;-78
2022/05/30 00:36:22;;;;;;;;;;;20.90;41.40;;;;;;484695;246;1085;-78
2022/05/30 00:38:23;;;;;;;;;;;20.80;41.20;;;;;;484783;246;2188;-78
2022/05/30 00:40:25;;;;;;;;;;;20.90;41.20;;;;;;484797;246;947;-78
2022/05/30 00:42:26;;;;;;;;;;;20.80;41.10;;;;;;484972;246;1133;-78
2022/05/30 00:44:27;;;;;;;;;;;20.80;41.10;;;;;;484744;246;1106;-78
2022/05/30 00:46:29;;;;;;;;;;;20.90;41.10;;;;;;484790;242;1238;-78
2022/05/30 00:48:30;;;;;;;;;;;20.80;41.00;;;;;;484837;246;1083;-78
2022/05/30 00:50:31;;;;;;;;;;;20.90;41.00;;;;;;484803;246;1048;-77
2022/05/30 00:52:33;;;;;;;;;;;20.90;40.80;;;;;;485071;246;1153;-78
2022/05/30 00:54:34;;;;;;;;;;;21.00;40.70;;;;;;484942;246;1272;-78
2022/05/30 00:56:35;;;;;;;;;;;21.00;40.70;;;;;;484799;246;1207;-77
2022/05/30 00:58:37;;;;;;;;;;;21.00;40.70;;;;;;484987;246;2171;-77
2022/05/30 01:00:38;;;;;;;;;;;20.90;40.60;;;;;;484905;246;1155;-78
2022/05/30 01:02:39;;;;;;;;;;;20.90;40.60;;;;;;484662;246;1192;-78
2022/05/30 01:07:00;;;;;;;;;;;20.90;40.60;;;;;;484854;246;1321;-78
2022/05/30 01:09:01;;;;;;;;;;;20.90;40.50;;;;;;484885;246;1240;-78
2022/05/30 01:11:03;;;;;;;;;;;20.90;40.50;;;;;;484785;246;1195;-77
2022/05/30 01:13:04;;;;;;;;;;;20.90;40.50;;;;;;484852;246;1405;-77
2022/05/30 01:15:05;;;;;;;;;;;20.80;40.60;;;;;;484958;246;1064;-77
2022/05/30 01:17:08;;;;;;;;;;;20.80;40.70;;;;;;484959;246;1434;-78
2022/05/30 01:19:08;;;;;;;;;;;20.80;40.70;;;;;;484670;246;2184;-78
2022/05/30 01:21:09;;;;;;;;;;;20.70;40.60;;;;;;484882;245;1150;-78
2022/05/30 01:23:11;;;;;;;;;;;20.80;40.60;;;;;;484892;246;1280;-78
2022/05/30 01:25:14;;;;;;;;;;;20.80;40.50;;;;;;484768;246;1179;-78
2022/05/30 01:27:14;;;;;;;;;;;20.80;40.50;;;;;;484829;246;1560;-78
2022/05/30 01:29:16;;;;;;;;;;;20.80;40.40;;;;;;484953;246;1107;-78
2022/05/30 01:31:16;;;;;;;;;;;20.90;40.40;;;;;;484816;246;1447;-78
2022/05/30 01:33:17;;;;;;;;;;;20.90;40.20;;;;;;484974;246;1062;-78
2022/05/30 01:35:19;;;;;;;;;;;20.80;40.30;;;;;;485043;246;1072;-78
2022/05/30 01:37:20;;;;;;;;;;;20.80;40.40;;;;;;484804;246;1340;-78
2022/05/30 01:39:21;;;;;;;;;;;20.80;40.30;;;;;;484880;246;2144;-78
2022/05/30 01:41:23;;;;;;;;;;;20.90;40.30;;;;;;484953;246;1244;-78
2022/05/30 01:43:24;;;;;;;;;;;20.90;40.20;;;;;;485020;246;1101;-78
2022/05/30 01:45:25;;;;;;;;;;;21.00;40.20;;;;;;484807;246;1116;-78
2022/05/30 01:47:27;;;;;;;;;;;20.90;40.00;;;;;;484786;246;1118;-78
2022/05/30 01:49:28;;;;;;;;;;;21.00;40.10;;;;;;484711;246;961;-78
2022/05/30 01:51:30;;;;;;;;;;;21.00;40.00;;;;;;484616;246;1218;-78
2022/05/30 01:53:31;;;;;;;;;;;20.90;39.90;;;;;;484697;246;1110;-78
2022/05/30 01:55:33;;;;;;;;;;;20.90;39.90;;;;;;484756;246;976;-78
2022/05/30 01:57:34;;;;;;;;;;;21.00;39.80;;;;;;484764;246;1125;-78
2022/05/30 01:59:35;;;;;;;;;;;21.00;39.80;;;;;;484731;246;2179;-78
2022/05/30 02:01:37;;;;;;;;;;;21.00;39.80;;;;;;484767;246;1060;-78
2022/05/30 02:03:38;;;;;;;;;;;21.00;39.60;;;;;;484755;246;966;-78
2022/05/30 02:05:40;;;;;;;;;;;20.90;39.70;;;;;;484722;246;1318;-78
2022/05/30 02:07:42;;;;;;;;;;;21.00;39.80;;;;;;484709;246;1423;-78
2022/05/30 02:09:43;;;;;;;;;;;21.00;39.70;;;;;;485081;246;1295;-78
2022/05/30 02:11:43;;;;;;;;;;;21.00;39.60;;;;;;484979;246;1472;-78
2022/05/30 02:13:45;;;;;;;;;;;21.10;39.50;;;;;;484701;246;1064;-78
2022/05/30 02:18:05;;;;;;;;;;;21.00;39.50;;;;;;484850;246;1104;-78
2022/05/30 02:20:07;;;;;;;;;;;20.90;39.60;;;;;;484737;246;2187;-78
2022/05/30 02:22:08;;;;;;;;;;;21.00;39.60;;;;;;484702;245;1117;-78
2022/05/30 02:24:09;;;;;;;;;;;21.00;39.50;;;;;;484713;246;1175;-78
2022/05/30 02:26:11;;;;;;;;;;;21.00;39.50;;;;;;484843;242;1178;-78
2022/05/30 02:28:12;;;;;;;;;;;20.90;39.50;;;;;;484742;246;1125;-78
2022/05/30 02:30:13;;;;;;;;;;;20.90;39.60;;;;;;484821;246;1089;-78
2022/05/30 02:32:14;;;;;;;;;;;20.90;39.70;;;;;;484881;246;1180;-78
2022/05/30 02:36:44;;;;;;;;;;;20.90;39.60;;;;;;484803;246;1204;-78
2022/05/30 02:38:44;;;;;;;;;;;20.90;39.50;;;;;;484877;246;1412;-78
2022/05/30 02:40:44;;;;;;;;;;;21.00;39.60;;;;;;484879;246;2187;-78
2022/05/30 02:42:46;;;;;;;;;;;21.00;39.50;;;;;;484759;246;1118;-78
2022/05/30 02:44:48;;;;;;;;;;;20.90;39.40;;;;;;484730;246;1172;-78
2022/05/30 02:46:48;;;;;;;;;;;21.00;39.30;;;;;;484674;246;1494;-78
2022/05/30 02:48:49;;;;;;;;;;;21.00;39.30;;;;;;484762;246;1097;-78
2022/05/30 02:50:51;;;;;;;;;;;21.00;39.40;;;;;;484651;246;1116;-78
2022/05/30 02:52:52;;;;;;;;;;;20.90;39.40;;;;;;484651;246;1187;-78
2022/05/30 02:54:53;;;;;;;;;;;20.90;39.40;;;;;;484720;246;1126;-78
2022/05/30 02:56:55;;;;;;;;;;;21.00;39.30;;;;;;484713;246;1171;-78
2022/05/30 02:58:56;;;;;;;;;;;20.90;39.20;;;;;;484954;246;1372;-78
2022/05/30 03:00:57;;;;;;;;;;;20.90;39.20;;;;;;484697;246;2179;-78
2022/05/30 03:02:59;;;;;;;;;;;20.90;39.30;;;;;;484707;246;1201;-78
2022/05/30 03:05:00;;;;;;;;;;;20.90;39.40;;;;;;484877;246;1182;-78
2022/05/30 03:07:02;;;;;;;;;;;20.90;39.50;;;;;;484698;246;1114;-78
2022/05/30 03:09:03;;;;;;;;;;;20.80;39.40;;;;;;484603;246;1557;-78
2022/05/30 03:11:04;;;;;;;;;;;20.90;39.30;;;;;;484636;246;1348;-78
2022/05/30 03:13:05;;;;;;;;;;;20.90;39.30;;;;;;484780;246;1138;-78
2022/05/30 03:15:07;;;;;;;;;;;20.90;39.20;;;;;;484835;246;1167;-78
2022/05/30 03:17:08;;;;;;;;;;;20.90;39.20;;;;;;484660;246;1079;-78
2022/05/30 03:19:09;;;;;;;;;;;20.90;39.20;;;;;;484820;246;1243;-78
2022/05/30 03:21:11;;;;;;;;;;;20.90;39.20;;;;;;484866;246;2194;-78
2022/05/30 03:23:12;;;;;;;;;;;20.90;39.20;;;;;;484687;246;1235;-79
2022/05/30 03:25:14;;;;;;;;;;;20.90;39.10;;;;;;484882;246;1240;-78
2022/05/30 03:27:15;;;;;;;;;;;20.90;39.10;;;;;;484708;246;1252;-78
2022/05/30 03:29:16;;;;;;;;;;;20.90;39.10;;;;;;484724;246;1045;-77
2022/05/30 03:31:17;;;;;;;;;;;20.90;39.10;;;;;;484673;246;1071;-78
2022/05/30 03:33:19;;;;;;;;;;;21.00;38.90;;;;;;484941;246;1085;-78
2022/05/30 03:35:20;;;;;;;;;;;21.00;38.90;;;;;;484810;246;1153;-78
2022/05/30 03:37:21;;;;;;;;;;;21.00;38.90;;;;;;484729;246;1097;-78
2022/05/30 03:39:23;;;;;;;;;;;21.00;38.90;;;;;;484874;246;2199;-78
2022/05/30 03:41:25;;;;;;;;;;;21.00;39.00;;;;;;484663;246;1072;-78
2022/05/30 03:43:26;;;;;;;;;;;20.90;38.90;;;;;;484752;246;1094;-78
2022/05/30 03:45:27;;;;;;;;;;;21.00;38.90;;;;;;484815;246;1485;-78
2022/05/30 03:47:28;;;;;;;;;;;21.00;38.70;;;;;;484618;246;1156;-78
2022/05/30 03:49:30;;;;;;;;;;;21.00;38.70;;;;;;484850;246;1081;-78
2022/05/30 03:51:31;;;;;;;;;;;21.00;38.80;;;;;;484788;246;1231;-78
2022/05/30 03:53:32;;;;;;;;;;;21.00;39.00;;;;;;484640;246;1103;-78
2022/05/30 03:55:34;;;;;;;;;;;21.00;38.90;;;;;;484700;246;1254;-78
2022/05/30 03:57:35;;;;;;;;;;;20.90;38.80;;;;;;484679;246;1208;-78
2022/05/30 03:59:37;;;;;;;;;;;20.90;38.80;;;;;;484685;246;2200;-78
2022/05/30 04:01:38;;;;;;;;;;;21.00;38.80;;;;;;484652;246;957;-78
2022/05/30 04:03:40;;;;;;;;;;;21.00;38.70;;;;;;484682;246;1045;-78
2022/05/30 04:05:41;;;;;;;;;;;21.00;38.60;;;;;;484592;246;1073;-78
2022/05/30 04:07:42;;;;;;;;;;;21.00;38.60;;;;;;484635;246;1040;-78
2022/05/30 04:09:44;;;;;;;;;;;21.00;38.60;;;;;;484576;246;1132;-78
2022/05/30 04:11:45;;;;;;;;;;;21.00;38.60;;;;;;484554;246;1334;-78
2022/05/30 04:13:46;;;;;;;;;;;20.90;38.80;;;;;;484596;246;955;-78
2022/05/30 04:15:48;;;;;;;;;;;21.00;38.80;;;;;;484619;246;969;-78
2022/05/30 04:17:49;;;;;;;;;;;21.00;38.60;;;;;;484491;246;1221;-78
2022/05/30 04:19:50;;;;;;;;;;;21.10;38.50;;;;;;484552;246;2132;-78
2022/05/30 04:21:52;;;;;;;;;;;21.10;38.50;;;;;;484437;246;1098;-78
2022/05/30 04:23:53;;;;;;;;;;;21.20;38.50;;;;;;484491;246;973;-78
2022/05/30 04:25:54;;;;;;;;;;;21.10;38.50;;;;;;484552;246;1191;-78
2022/05/30 04:27:55;;;;;;;;;;;21.10;38.60;;;;;;484543;246;1108;-78
2022/05/30 04:29:57;;;;;;;;;;;21.00;38.60;;;;;;484553;246;1042;-78
2022/05/30 04:31:58;;;;;;;;;;;21.00;38.80;;;;;;484501;246;1034;-78
2022/05/30 04:34:00;;;;;;;;;;;21.00;38.70;;;;;;484594;246;957;-78
2022/05/30 04:36:02;;;;;;;;;;;20.90;38.70;;;;;;484895;246;1402;-78
2022/05/30 04:38:03;;;;;;;;;;;20.90;38.80;;;;;;484503;246;1246;-77
2022/05/30 04:40:04;;;;;;;;;;;21.00;38.80;;;;;;484504;246;2179;-78
2022/05/30 04:42:05;;;;;;;;;;;20.90;38.90;;;;;;484589;246;1065;-78
2022/05/30 04:44:07;;;;;;;;;;;20.90;39.10;;;;;;484557;246;1294;-78
2022/05/30 04:46:08;;;;;;;;;;;20.90;39.00;;;;;;484498;246;1181;-78
2022/05/30 04:48:10;;;;;;;;;;;20.90;39.10;;;;;;484556;246;1072;-78
2022/05/30 04:50:13;;;;;;;;;;;20.80;39.10;;;;;;484512;246;1232;-78
2022/05/30 04:52:14;;;;;;;;;;;20.80;39.20;;;;;;484353;246;1296;-78
2022/05/30 04:54:15;;;;;;;;;;;20.80;39.30;;;;;;484405;246;1041;-78
2022/05/30 04:56:19;;;;;;;;;;;20.80;39.20;;;;;;484428;246;1196;-78
2022/05/30 04:58:18;;;;;;;;;;;20.90;39.20;;;;;;484748;246;1432;-78
2022/05/30 05:00:19;;;;;;;;;;;21.00;39.20;;;;;;484463;246;2168;-78
2022/05/30 05:02:21;;;;;;;;;;;20.90;39.10;;;;;;484514;246;1262;-78
2022/05/30 05:04:22;;;;;;;;;;;20.90;39.20;;;;;;484598;246;1106;-78
2022/05/30 05:06:23;;;;;;;;;;;20.90;39.20;;;;;;484523;246;1204;-78
2022/05/30 05:08:25;;;;;;;;;;;20.90;39.30;;;;;;484476;246;1090;-78
2022/05/30 05:10:26;;;;;;;;;;;20.90;39.40;;;;;;484469;246;1335;-78
2022/05/30 05:12:27;;;;;;;;;;;20.80;39.30;;;;;;484370;246;1062;-78
2022/05/30 05:14:29;;;;;;;;;;;20.90;39.50;;;;;;484583;246;1097;-78
2022/05/30 05:16:30;;;;;;;;;;;20.90;39.50;;;;;;484370;246;1208;-78
2022/05/30 05:18:31;;;;;;;;;;;20.90;39.50;;;;;;484326;246;1100;-78
2022/05/30 05:20:32;;;;;;;;;;;20.90;39.70;;;;;;484300;246;2195;-78
2022/05/30 05:22:34;;;;;;;;;;;20.80;39.70;;;;;;484381;246;1159;-78
2022/05/30 05:24:35;;;;;;;;;;;20.80;39.60;;;;;;484535;246;1044;-78
2022/05/30 05:26:36;;;;;;;;;;;20.80;39.80;;;;;;484443;246;1299;-78
2022/05/30 05:28:38;;;;;;;;;;;20.80;39.90;;;;;;484653;246;1188;-78
2022/05/30 05:30:39;;;;;;;;;;;20.80;39.80;;;;;;484194;246;1169;-78
2022/05/30 05:32:40;;;;;;;;;;;20.80;39.90;;;;;;484342;246;1360;-78
2022/05/30 05:34:42;;;;;;;;;;;20.90;40.00;;;;;;484381;246;1170;-78
2022/05/30 05:36:44;;;;;;;;;;;20.90;40.00;;;;;;484613;246;1123;-78
2022/05/30 05:38:44;;;;;;;;;;;20.90;40.10;;;;;;484492;246;1659;-78
2022/05/30 05:40:46;;;;;;;;;;;20.80;40.10;;;;;;484728;246;2194;-78
2022/05/30 05:42:47;;;;;;;;;;;21.00;40.00;;;;;;484284;246;1116;-78
2022/05/30 05:44:48;;;;;;;;;;;21.30;39.60;;;;;;484341;246;1185;-78
2022/05/30 05:46:50;;;;;;;;;;;21.30;39.50;;;;;;484121;243;1241;-78
2022/05/30 05:48:51;;;;;;;;;;;21.20;39.70;;;;;;484452;246;1176;-78
2022/05/30 05:50:53;;;;;;;;;;;21.10;40.00;;;;;;484447;246;1301;-78
2022/05/30 05:52:54;;;;;;;;;;;21.00;40.20;;;;;;484366;246;1072;-78
2022/05/30 05:54:55;;;;;;;;;;;21.00;40.30;;;;;;484313;246;1072;-78
2022/05/30 05:56:57;;;;;;;;;;;21.00;40.40;;;;;;484601;246;1240;-78
2022/05/30 05:58:58;;;;;;;;;;;20.90;40.50;;;;;;484361;246;1058;-77
2022/05/30 06:00:59;;;;;;;;;;;20.90;40.70;;;;;;484308;246;2245;-78
2022/05/30 06:03:01;;;;;;;;;;;21.00;40.60;;;;;;484331;246;1114;-78
2022/05/30 06:05:02;;;;;;;;;;;20.80;40.80;;;;;;484299;246;1217;-78
2022/05/30 06:07:03;;;;;;;;;;;20.70;41.10;;;;;;484212;246;1224;-78
2022/05/30 06:09:05;;;;;;;;;;;20.80;41.10;;;;;;484239;246;1086;-78
2022/05/30 06:11:08;;;;;;;;;;;20.80;41.20;;;;;;484210;246;1199;-77
2022/05/30 06:13:08;;;;;;;;;;;20.80;41.30;;;;;;484226;246;1528;-78
2022/05/30 06:15:09;;;;;;;;;;;20.80;41.30;;;;;;484245;246;1334;-78
2022/05/30 06:17:10;;;;;;;;;;;20.80;41.40;;;;;;484370;246;1260;-78
2022/05/30 06:19:12;;;;;;;;;;;20.80;41.40;;;;;;484287;246;1186;-78
2022/05/30 06:21:13;;;;;;;;;;;20.80;41.40;;;;;;484186;246;2172;-78
2022/05/30 06:23:14;;;;;;;;;;;20.80;41.50;;;;;;483983;246;1159;-78
2022/05/30 06:25:16;;;;;;;;;;;20.80;41.70;;;;;;483935;246;1215;-78
2022/05/30 06:27:19;;;;;;;;;;;20.70;41.70;;;;;;484351;246;1095;-78
2022/05/30 06:29:18;;;;;;;;;;;20.70;41.90;;;;;;483905;246;1266;-78
2022/05/30 06:31:20;;;;;;;;;;;20.70;42.00;;;;;;484094;246;1119;-78
2022/05/30 06:33:21;;;;;;;;;;;20.70;42.10;;;;;;483983;246;1105;-78
2022/05/30 06:35:22;;;;;;;;;;;20.70;42.20;;;;;;483995;246;1165;-78
2022/05/30 06:37:24;;;;;;;;;;;20.70;42.10;;;;;;483981;246;1225;-78
2022/05/30 06:39:27;;;;;;;;;;;20.70;42.30;;;;;;484075;246;1065;-78
2022/05/30 06:41:27;;;;;;;;;;;20.80;42.30;;;;;;484381;242;2190;-78
2022/05/30 06:43:28;;;;;;;;;;;20.90;42.20;;;;;;484400;246;1181;-78
2022/05/30 06:45:29;;;;;;;;;;;20.80;42.20;;;;;;484401;246;1102;-78
2022/05/30 06:47:31;;;;;;;;;;;20.80;42.30;;;;;;483954;246;1115;-79
2022/05/30 06:49:32;;;;;;;;;;;20.80;42.40;;;;;;483903;246;1223;-78
2022/05/30 06:51:34;;;;;;;;;;;20.80;42.40;;;;;;483745;246;1307;-78
2022/05/30 06:53:35;;;;;;;;;;;20.80;42.50;;;;;;484025;246;1363;-78
2022/05/30 06:55:36;;;;;;;;;;;20.80;42.40;;;;;;483924;246;1167;-78
2022/05/30 07:00:16;;;;;;;;;;;20.80;42.60;;;;;;467189;254;1187;-78
2022/05/30 07:02:18;;;;;;;;;;;20.80;42.60;;;;;;467143;254;2200;-78
2022/05/30 07:04:19;;;;;;;;;;;20.80;42.80;;;;;;467790;255;1368;-78
2022/05/30 07:06:20;;;;;;;;;;;20.80;42.70;;;;;;467509;254;1285;-78
2022/05/30 07:08:23;;;;;;;;;;;20.80;42.70;;;;;;467647;255;1230;-77
2022/05/30 07:10:24;;;;;;;;;;;20.70;42.90;;;;;;467834;255;1274;-78
2022/05/30 07:12:25;;;;;;;;;;;20.80;43.00;;;;;;467348;250;1172;-78
2022/05/30 07:14:26;;;;;;;;;;;20.80;42.90;;;;;;467197;254;1166;-77
2022/05/30 07:16:27;;;;;;;;;;;20.80;43.00;;;;;;467509;255;1229;-77
2022/05/30 07:18:29;;;;;;;;;;;20.90;43.00;;;;;;467475;255;1336;-77
2022/05/30 07:20:30;;;;;;;;;;;20.90;43.00;;;;;;467497;255;1159;-77
2022/05/30 07:22:31;;;;;;;;;;;20.90;43.10;;;;;;467180;255;2220;-78
2022/05/30 07:24:33;;;;;;;;;;;20.90;43.10;;;;;;467773;255;1187;-78
2022/05/30 07:26:34;;;;;;;;;;;20.90;43.20;;;;;;467280;255;1281;-78
2022/05/30 07:28:35;;;;;;;;;;;20.90;43.30;;;;;;467346;255;1152;-77
2022/05/30 07:30:37;;;;;;;;;;;20.90;43.20;;;;;;467696;255;1186;-78
2022/05/30 07:32:38;;;;;;;;;;;20.90;43.10;;;;;;483287;246;1245;-78
2022/05/30 07:34:39;;;;;;;;;;;21.00;43.10;;;;;;483816;246;1183;-78
2022/05/30 07:36:41;;;;;;;;;;;21.10;43.00;;;;;;483491;246;1304;-78
2022/05/30 07:38:42;;;;;;;;;;;21.00;43.00;;;;;;483583;246;1194;-78
2022/05/30 07:40:43;;;;;;;;;;;21.00;43.10;;;;;;483613;246;1277;-77
2022/05/30 07:42:45;;;;;;;;;;;21.00;43.20;;;;;;483618;246;1145;-78
2022/05/30 07:44:46;;;;;;;;;;;21.00;43.30;;;;;;484145;246;1153;-78
2022/05/30 07:46:47;;;;;;;;;;;21.00;43.40;;;;;;483784;246;1164;-77
2022/05/30 07:48:49;;;;;;;;;;;21.00;43.20;;;;;;484061;246;1100;-78
2022/05/30 07:50:50;;;;;;;;;;;21.00;43.30;;;;;;483661;246;1145;-77
2022/05/30 07:52:51;;;;;;;;;;;21.00;43.30;;;;;;484195;246;1305;-78
2022/05/30 07:54:52;;;;;;;;;;;21.00;43.50;;;;;;483576;246;1803;-78
2022/05/30 07:56:54;;;;;;;;;;;21.00;43.40;;;;;;483668;246;1158;-78
2022/05/30 07:58:55;;;;;;;;;;;21.00;43.30;;;;;;483560;246;1155;-77
2022/05/30 08:00:56;;;;;;;;;;;21.00;43.20;;;;;;483582;246;2200;-77
2022/05/30 08:02:58;;;;;;;;;;;21.10;43.20;;;;;;483633;246;1005;-78
2022/05/30 08:04:59;;;;;;;;;;;21.00;43.30;;;;;;483703;246;818;-78
2022/05/30 08:07:00;;;;;;;;;;;21.00;43.50;;;;;;484371;246;1214;-78
2022/05/30 08:09:02;;;;;;;;;;;21.00;43.60;;;;;;483970;246;1109;-78
2022/05/30 08:11:03;;;;;;;;;;;21.00;43.60;;;;;;483762;246;1113;-78
2022/05/30 08:13:04;;;;;;;;;;;21.00;43.70;;;;;;484471;246;1079;-78
2022/05/30 08:15:06;;;;;;;;;;;21.10;43.60;;;;;;483791;246;1060;-78
2022/05/30 08:17:07;;;;;;;;;;;21.10;43.50;;;;;;484133;246;1165;-78
2022/05/30 08:19:08;;;;;;;;;;;21.10;43.50;;;;;;483786;246;1389;-78
2022/05/30 08:21:09;;;;;;;;;;;21.10;43.40;;;;;;483500;246;2191;-78
2022/05/30 08:23:11;;;;;;;;;;;21.20;43.30;;;;;;484011;246;1099;-78
2022/05/30 08:25:14;;;;;;;;;;;21.20;43.20;;;;;;483801;246;1153;-78
2022/05/30 08:27:15;;;;;;;;;;;21.30;43.10;;;;;;484018;246;1477;-78
2022/05/30 08:29:16;;;;;;;;;;;21.10;43.10;;;;;;483934;246;1085;-78
2022/05/30 08:31:17;;;;;;;;;;;21.10;43.20;;;;;;484301;246;1292;-78
2022/05/30 08:33:18;;;;;;;;;;;21.10;43.30;;;;;;484097;246;1310;-78
2022/05/30 08:35:20;;;;;;;;;;;21.10;43.40;;;;;;483917;246;1192;-78
2022/05/30 08:37:21;;;;;;;;;;;21.10;43.50;;;;;;484064;246;1147;-77
2022/05/30 08:41:49;;;;;;;;;;;21.30;43.30;;;;;;473172;246;2208;-79
2022/05/30 08:43:50;;;;;;;;;;;21.30;43.10;;;;;;484097;242;1187;-78
2022/05/30 08:45:51;;;;;;;;;;;21.30;43.10;;;;;;483822;246;1083;-78
2022/05/30 08:47:53;;;;;;;;;;;21.30;43.00;;;;;;484043;246;1118;-78
2022/05/30 08:49:54;;;;;;;;;;;21.30;43.00;;;;;;484058;246;1181;-78
2022/05/30 08:51:55;;;;;;;;;;;21.30;43.00;;;;;;483585;246;1116;-78
2022/05/30 08:53:57;;;;;;;;;;;21.30;43.10;;;;;;484112;246;1170;-78
2022/05/30 08:55:58;;;;;;;;;;;21.30;43.10;;;;;;483867;246;1182;-78
2022/05/30 08:57:59;;;;;;;;;;;21.30;43.00;;;;;;484288;246;1200;-78
2022/05/30 09:00:01;;;;;;;;;;;21.40;42.80;;;;;;483641;246;1081;-78
2022/05/30 09:02:02;;;;;;;;;;;21.40;42.70;;;;;;483659;246;2116;-78
2022/05/30 09:04:08;;;;;;;;;;;21.40;42.80;;;;;;483543;246;1100;-78
2022/05/30 09:06:08;;;;;;;;;;;21.30;42.80;;;;;;483526;246;1299;-78
2022/05/30 09:08:09;;;;;;;;;;;21.30;42.80;;;;;;483688;246;1018;-78
2022/05/30 09:10:10;;;;;;;;;;;21.30;43.00;;;;;;483848;246;1062;-78
2022/05/30 09:12:12;;;;;;;;;;;21.30;43.00;;;;;;483793;246;1054;-78
2022/05/30 09:14:13;;;;;;;;;;;21.30;43.00;;;;;;483755;246;1228;-78
2022/05/30 09:16:15;;;;;;;;;;;21.30;43.00;;;;;;483738;246;1064;-78
2022/05/30 09:18:16;;;;;;;;;;;21.30;43.00;;;;;;483701;246;1170;-78
2022/05/30 09:20:17;;;;;;;;;;;21.30;43.00;;;;;;483732;246;1061;-78
2022/05/30 09:22:21;;;;;;;;;;;21.30;42.90;;;;;;483637;246;2204;-77
2022/05/30 09:24:20;;;;;;;;;;;21.30;42.80;;;;;;483770;246;1392;-78
2022/05/30 09:26:21;;;;;;;;;;;21.20;42.90;;;;;;483805;246;1123;-78
2022/05/30 09:28:23;;;;;;;;;;;21.30;42.90;;;;;;483849;246;1145;-78
2022/05/30 09:30:24;;;;;;;;;;;21.20;43.10;;;;;;483556;246;1124;-78
2022/05/30 09:32:25;;;;;;;;;;;21.20;43.10;;;;;;483686;246;1116;-77
2022/05/30 09:34:26;;;;;;;;;;;21.10;43.00;;;;;;483810;246;1432;-78
2022/05/30 09:36:28;;;;;;;;;;;21.20;42.80;;;;;;483807;246;1118;-78
2022/05/30 09:38:29;;;;;;;;;;;21.10;42.70;;;;;;483835;246;1341;-77
2022/05/30 09:40:30;;;;;;;;;;;21.10;42.70;;;;;;483914;246;1200;-77
2022/05/30 09:42:32;;;;;;;;;;;21.10;42.50;;;;;;483810;246;2183;-78
2022/05/30 09:44:33;;;;;;;;;;;21.10;42.60;;;;;;483788;246;1123;-78
2022/05/30 09:46:35;;;;;;;;;;;21.20;42.60;;;;;;484015;246;1275;-77
2022/05/30 09:48:36;;;;;;;;;;;21.10;42.60;;;;;;484189;242;1103;-78
2022/05/30 09:50:37;;;;;;;;;;;21.10;42.60;;;;;;483991;246;1065;-78
2022/05/30 09:52:39;;;;;;;;;;;21.10;42.50;;;;;;483544;246;1213;-78
2022/05/30 09:54:40;;;;;;;;;;;21.10;42.50;;;;;;483808;246;1112;-77
2022/05/30 09:56:41;;;;;;;;;;;21.20;42.50;;;;;;483837;246;1158;-78
2022/05/30 09:58:43;;;;;;;;;;;21.10;42.50;;;;;;483825;246;1211;-77
2022/05/30 10:00:44;;;;;;;;;;;21.00;42.60;;;;;;483605;246;1179;-78
2022/05/30 10:02:46;;;;;;;;;;;21.00;42.60;;;;;;484159;246;2187;-78
2022/05/30 10:04:47;;;;;;;;;;;21.10;42.60;;;;;;483779;246;1158;-78
2022/05/30 10:06:48;;;;;;;;;;;21.10;42.50;;;;;;483982;246;1142;-77
2022/05/30 10:08:50;;;;;;;;;;;21.10;42.30;;;;;;483864;246;1197;-78
2022/05/30 10:10:51;;;;;;;;;;;21.10;42.20;;;;;;483903;246;1180;-78
2022/05/30 10:12:52;;;;;;;;;;;21.10;42.20;;;;;;483831;246;1237;-77
2022/05/30 10:14:54;;;;;;;;;;;21.10;42.10;;;;;;483759;246;1078;-78
2022/05/30 10:16:55;;;;;;;;;;;21.10;42.00;;;;;;484032;246;1378;-77
2022/05/30 10:18:56;;;;;;;;;;;21.10;42.00;;;;;;484051;246;1181;-78
2022/05/30 10:21:00;;;;;;;;;;;21.10;42.00;;;;;;483947;246;1221;-78
2022/05/30 10:29:57;;;;;;;;;;;21.20;41.80;;;;;;483670;246;1129;-78
2022/05/30 10:31:58;;;;;;;;;;;21.20;41.70;;;;;;483670;246;1273;-78
2022/05/30 10:33:59;;;;;;;;;;;21.20;41.60;;;;;;483838;246;1482;-78
2022/05/30 10:36:03;;;;;;;;;;;21.20;41.60;;;;;;483791;246;1085;-77
2022/05/30 10:38:03;;;;;;;;;;;21.20;41.60;;;;;;483709;246;1314;-78
2022/05/30 10:40:04;;;;;;;;;;;21.20;41.60;;;;;;483789;246;1076;-78
2022/05/30 10:42:05;;;;;;;;;;;21.20;41.60;;;;;;484015;246;2202;-78
2022/05/30 10:44:07;;;;;;;;;;;21.10;41.50;;;;;;483897;246;1100;-78
2022/05/30 10:46:08;;;;;;;;;;;21.10;41.50;;;;;;483960;246;1074;-78
2022/05/30 10:48:10;;;;;;;;;;;21.20;41.50;;;;;;483765;246;1129;-78
2022/05/30 10:50:11;;;;;;;;;;;21.10;41.50;;;;;;483690;246;1357;-78
2022/05/30 10:52:12;;;;;;;;;;;21.10;41.50;;;;;;483702;246;1189;-78
2022/05/30 10:54:13;;;;;;;;;;;21.10;41.60;;;;;;483533;246;1226;-78
2022/05/30 10:56:15;;;;;;;;;;;21.10;41.80;;;;;;484128;246;1118;-78
2022/05/30 10:58:16;;;;;;;;;;;21.10;41.80;;;;;;483768;246;1062;-78
2022/05/30 11:00:17;;;;;;;;;;;21.10;41.80;;;;;;483836;246;1228;-78
2022/05/30 11:02:19;;;;;;;;;;;21.10;41.80;;;;;;483636;246;2187;-78
2022/05/30 11:04:20;;;;;;;;;;;21.00;41.80;;;;;;483862;246;1210;-78
2022/05/30 11:06:23;;;;;;;;;;;21.00;41.90;;;;;;483730;246;1070;-77
2022/05/30 11:08:23;;;;;;;;;;;21.00;41.90;;;;;;484201;246;1278;-77
2022/05/30 11:10:24;;;;;;;;;;;21.00;41.90;;;;;;484287;246;1058;-77
2022/05/30 11:12:25;;;;;;;;;;;21.00;41.90;;;;;;483777;246;1215;-77
2022/05/30 11:14:27;;;;;;;;;;;21.00;41.90;;;;;;483975;246;1249;-78
2022/05/30 11:16:28;;;;;;;;;;;21.00;42.00;;;;;;483712;246;1075;-78
2022/05/30 11:18:29;;;;;;;;;;;21.00;41.90;;;;;;483731;246;1071;-78
2022/05/30 11:20:31;;;;;;;;;;;21.10;41.90;;;;;;483708;246;1143;-77
2022/05/30 11:22:32;;;;;;;;;;;21.00;41.90;;;;;;484130;246;2136;-78
2022/05/30 11:24:33;;;;;;;;;;;21.00;41.90;;;;;;483749;246;1057;-78
2022/05/30 11:26:35;;;;;;;;;;;21.00;41.90;;;;;;483556;246;1082;-78
2022/05/30 11:28:36;;;;;;;;;;;20.90;42.00;;;;;;483601;246;1085;-78
2022/05/30 11:30:38;;;;;;;;;;;20.90;42.10;;;;;;483571;246;1247;-78
2022/05/30 11:32:41;;;;;;;;;;;20.90;42.10;;;;;;483739;246;1037;-77
2022/05/30 11:34:40;;;;;;;;;;;21.00;42.30;;;;;;483979;246;1401;-77
2022/05/30 11:36:42;;;;;;;;;;;21.00;42.20;;;;;;483564;246;1224;-78
2022/05/30 11:38:43;;;;;;;;;;;21.00;42.10;;;;;;483714;246;1077;-78
2022/05/30 11:40:44;;;;;;;;;;;21.00;42.00;;;;;;483698;246;1102;-77
2022/05/30 11:42:46;;;;;;;;;;;20.90;41.80;;;;;;483685;246;2188;-78
2022/05/30 11:44:47;;;;;;;;;;;21.00;41.70;;;;;;483740;246;1095;-78
2022/05/30 11:46:48;;;;;;;;;;;21.00;41.60;;;;;;483569;246;1129;-78
2022/05/30 11:48:50;;;;;;;;;;;20.90;41.50;;;;;;483855;246;1193;-77
2022/05/30 11:50:51;;;;;;;;;;;20.90;41.50;;;;;;483939;246;1268;-77
2022/05/30 11:52:52;;;;;;;;;;;21.00;41.30;;;;;;483686;246;1088;-78
2022/05/30 11:54:54;;;;;;;;;;;21.10;41.30;;;;;;483544;246;1116;-78
2022/05/30 11:56:55;;;;;;;;;;;21.10;41.00;;;;;;483493;246;1088;-78
2022/05/30 11:58:56;;;;;;;;;;;21.10;40.80;;;;;;483752;246;1269;-77
2022/05/30 12:00:58;;;;;;;;;;;21.00;40.70;;;;;;484136;246;1193;-78
2022/05/30 12:02:59;;;;;;;;;;;21.00;40.80;;;;;;483606;246;2188;-78
2022/05/30 12:05:00;;;;;;;;;;;20.90;40.80;;;;;;484229;246;1070;-78
2022/05/30 12:07:03;;;;;;;;;;;21.00;41.00;;;;;;484177;246;1157;-77
2022/05/30 12:09:03;;;;;;;;;;;20.90;41.20;;;;;;483906;242;1367;-78
2022/05/30 12:11:04;;;;;;;;;;;20.90;41.30;;;;;;483762;246;1115;-77
2022/05/30 12:13:06;;;;;;;;;;;20.90;41.20;;;;;;483867;246;1116;-77
2022/05/30 12:15:07;;;;;;;;;;;20.90;41.20;;;;;;483918;246;1125;-78
2022/05/30 12:17:08;;;;;;;;;;;21.00;41.10;;;;;;483845;246;1308;-78